Gazi — 9HA2542 — position and weather

sailwx.info

Track history (hours):
 
Tides and Currents Weather Stations Pressure Air Temp Water Temp Dewpoint Dewpoint Depression Visibility Wind Speed Wind Dir Waves Ship Positions

Gazi

Last reported at 2017-Jul-03 04:15 UTC. Time now 2017-Aug-19 07:25 UTC.
Position N 01°54' E 102°23'.
Warning: this ship's position is 47 days out of date.

Length 153 m; draft 5 m.

MMSI: 248841000.

Date/timePositionNaut miles runAvg speedWind from/ knotsBaromVisibWave heightAir tempDewpointWater temp
2017-Jul-03 04:15N 01°54' E 102°23'312.6
2017-Jul-03 03:59N 01°52' E 102°25'613.1
2017-Jul-03 03:29N 01°49' E 102°31'6212.8
2017-Jul-02 22:39N 01°15' E 103°23'311.2
2017-Jul-02 22:25N 01°14' E 103°26'611.6
2017-Jul-02 21:54N 01°13' E 103°32'512.5
2017-Jul-02 21:30N 01°12' E 103°36'612.2
2017-Jul-02 20:59N 01°10' E 103°42'5 9.3
2017-Jul-02 20:30N 01°10' E 103°47'3 6.5
2017-Jul-02 20:00N 01°12' E 103°49'1 1.8
2017-Jul-02 19:30N 01°13' E 103°49'0 0.0
2017-Jul-02 19:00N 01°13' E 103°49'0 0.1
2017-Jul-02 18:30N 01°13' E 103°49'0 0.1
2017-Jul-02 18:00N 01°13' E 103°49'0 0.5
2017-Jul-02 17:30N 01°13' E 103°49'3 5.3
2017-Jul-02 17:01N 01°14' E 103°47'2 3.3
2017-Jul-02 16:30N 01°15' E 103°49'0 0.0
2017-Jul-02 15:51N 01°15' E 103°49'0 0.0
2017-Jul-02 15:27N 01°15' E 103°49'0 0.0
2017-Jul-02 14:57N 01°15' E 103°49'0 0.0
2017-Jul-02 13:54N 01°15' E 103°49'0 0.1
2017-Jul-02 13:27N 01°15' E 103°49'0 0.1
2017-Jul-02 12:57N 01°15' E 103°49'0 0.0
2017-Jul-02 12:27N 01°15' E 103°49'0 0.0
2017-Jul-02 11:57N 01°15' E 103°49'0 0.1
2017-Jul-02 11:21N 01°15' E 103°49'0 0.1
2017-Jul-02 10:57N 01°15' E 103°49'0 0.1
2017-Jul-02 10:24N 01°15' E 103°49'0 0.0
2017-Jul-02 09:51N 01°15' E 103°49'0 0.2
2017-Jul-02 09:27N 01°15' E 103°49'0 0.1
2017-Jul-02 08:57N 01°15' E 103°49'0 0.1
2017-Jul-02 08:24N 01°15' E 103°49'0 0.0
2017-Jul-02 08:00N 01°15' E 103°49'0 0.0
2017-Jul-02 07:30N 01°15' E 103°49'0 0.0
2017-Jul-02 07:00N 01°15' E 103°49'0 0.0
2017-Jul-02 06:30N 01°15' E 103°49'0 0.1
2017-Jul-02 05:57N 01°15' E 103°49'0 0.2
2017-Jul-02 05:27N 01°15' E 103°49'0 0.1
2017-Jul-02 04:57N 01°15' E 103°49'0 0.0
2017-Jul-02 04:30N 01°15' E 103°49'0 0.1
2017-Jul-02 03:57N 01°15' E 103°49'0 0.0
2017-Jul-02 03:24N 01°15' E 103°49'0 0.0
2017-Jul-02 02:57N 01°15' E 103°49'0 0.0
2017-Jul-02 02:27N 01°15' E 103°49'0 0.1
2017-Jul-02 01:54N 01°15' E 103°49'0 0.2
2017-Jul-02 01:30N 01°15' E 103°49'2 3.2
2017-Jul-02 01:00N 01°13' E 103°49'0 0.2
2017-Jul-02 00:12N 01°13' E 103°49'0 0.0
2017-Jul-02 00:00N 01°13' E 103°49'0 0.1
2017-Jul-01 23:29N 01°13' E 103°49'1 1.8
2017-Jul-01 22:59N 01°13' E 103°50'3 6.3
2017-Jul-01 22:30N 01°13' E 103°53'2 4.5
2017-Jul-01 21:58N 01°14' E 103°55'2 4.2
2017-Jul-01 21:30N 01°15' E 103°57'4 6.5
2017-Jul-01 20:56N 01°16' E 104°01'  
Track history (hours):
 
Tides and Currents Weather Stations Pressure Air Temp Water Temp Dewpoint Dewpoint Depression Visibility Wind Speed Wind Dir Waves Ship Positions

Gazi

Last reported at 2017-Jul-03 04:15 UTC. Time now 2017-Aug-19 07:25 UTC.
Position N 01°54' E 102°23'.
Warning: this ship's position is 47 days out of date.

Length 153 m; draft 5 m.

MMSI: 248841000.

Date/timePositionNaut miles runAvg speedWind from/ knotsBaromVisibWave heightAir tempDewpointWater temp
2017-Jul-03 04:15N 01°54' E 102°23'312.6
2017-Jul-03 03:59N 01°52' E 102°25'613.1
2017-Jul-03 03:29N 01°49' E 102°31'6212.8
2017-Jul-02 22:39N 01°15' E 103°23'311.2
2017-Jul-02 22:25N 01°14' E 103°26'611.6
2017-Jul-02 21:54N 01°13' E 103°32'512.5
2017-Jul-02 21:30N 01°12' E 103°36'612.2
2017-Jul-02 20:59N 01°10' E 103°42'5 9.3
2017-Jul-02 20:30N 01°10' E 103°47'3 6.5
2017-Jul-02 20:00N 01°12' E 103°49'1 1.8
2017-Jul-02 19:30N 01°13' E 103°49'0 0.0
2017-Jul-02 19:00N 01°13' E 103°49'0 0.1
2017-Jul-02 18:30N 01°13' E 103°49'0 0.1
2017-Jul-02 18:00N 01°13' E 103°49'0 0.5
2017-Jul-02 17:30N 01°13' E 103°49'3 5.3
2017-Jul-02 17:01N 01°14' E 103°47'2 3.3
2017-Jul-02 16:30N 01°15' E 103°49'0 0.0
2017-Jul-02 15:51N 01°15' E 103°49'0 0.0
2017-Jul-02 15:27N 01°15' E 103°49'0 0.0
2017-Jul-02 14:57N 01°15' E 103°49'0 0.0
2017-Jul-02 13:54N 01°15' E 103°49'0 0.1
2017-Jul-02 13:27N 01°15' E 103°49'0 0.1
2017-Jul-02 12:57N 01°15' E 103°49'0 0.0
2017-Jul-02 12:27N 01°15' E 103°49'0 0.0
2017-Jul-02 11:57N 01°15' E 103°49'0 0.1
2017-Jul-02 11:21N 01°15' E 103°49'0 0.1
2017-Jul-02 10:57N 01°15' E 103°49'0 0.1
2017-Jul-02 10:24N 01°15' E 103°49'0 0.0
2017-Jul-02 09:51N 01°15' E 103°49'0 0.2
2017-Jul-02 09:27N 01°15' E 103°49'0 0.1
2017-Jul-02 08:57N 01°15' E 103°49'0 0.1
2017-Jul-02 08:24N 01°15' E 103°49'0 0.0
2017-Jul-02 08:00N 01°15' E 103°49'0 0.0
2017-Jul-02 07:30N 01°15' E 103°49'0 0.0
2017-Jul-02 07:00N 01°15' E 103°49'0 0.0
2017-Jul-02 06:30N 01°15' E 103°49'0 0.1
2017-Jul-02 05:57N 01°15' E 103°49'0 0.2
2017-Jul-02 05:27N 01°15' E 103°49'0 0.1
2017-Jul-02 04:57N 01°15' E 103°49'0 0.0
2017-Jul-02 04:30N 01°15' E 103°49'0 0.1
2017-Jul-02 03:57N 01°15' E 103°49'0 0.0
2017-Jul-02 03:24N 01°15' E 103°49'0 0.0
2017-Jul-02 02:57N 01°15' E 103°49'0 0.0
2017-Jul-02 02:27N 01°15' E 103°49'0 0.1
2017-Jul-02 01:54N 01°15' E 103°49'0 0.2
2017-Jul-02 01:30N 01°15' E 103°49'2 3.2
2017-Jul-02 01:00N 01°13' E 103°49'0 0.2
2017-Jul-02 00:12N 01°13' E 103°49'0 0.0
2017-Jul-02 00:00N 01°13' E 103°49'0 0.1
2017-Jul-01 23:29N 01°13' E 103°49'1 1.8
2017-Jul-01 22:59N 01°13' E 103°50'3 6.3
2017-Jul-01 22:30N 01°13' E 103°53'2 4.5
2017-Jul-01 21:58N 01°14' E 103°55'2 4.2
2017-Jul-01 21:30N 01°15' E 103°57'4 6.5
2017-Jul-01 20:56N 01°16' E 104°01'  

Dump ship's entire track history